createdAt,value
2022-09-24T00:01:49.218Z,44.35
2022-09-24T00:04:17.124Z,53.35
2022-09-24T00:06:47.245Z,49.55
2022-09-24T00:09:22.139Z,51.67
2022-09-24T00:11:52.314Z,50.60
2022-09-24T00:14:20.739Z,47.00
2022-09-24T00:16:49.744Z,48.47
2022-09-24T00:19:18.022Z,48.22
2022-09-24T00:21:45.993Z,54.00
2022-09-24T00:24:32.271Z,54.53
2022-09-24T00:27:00.359Z,55.60
2022-09-24T00:29:28.526Z,58.17
2022-09-24T00:31:56.807Z,61.17
2022-09-24T00:34:24.864Z,53.05
2022-09-24T00:36:53.468Z,53.53
2022-09-24T00:39:22.751Z,54.15
2022-09-24T00:41:50.755Z,60.05
2022-09-24T00:44:54.505Z,66.80
2022-09-24T00:47:36.077Z,60.25
2022-09-24T00:50:25.109Z,67.55
2022-09-24T00:52:57.504Z,63.00
2022-09-24T00:55:28.450Z,56.28
2022-09-24T00:57:58.337Z,65.05
2022-09-24T01:00:26.968Z,66.70
2022-09-24T01:03:01.727Z,65.22
2022-09-24T01:05:29.828Z,63.88
2022-09-24T01:07:58.189Z,66.22
2022-09-24T01:10:55.287Z,61.85
2022-09-24T01:13:43.335Z,66.80
2022-09-24T01:16:20.914Z,69.15
2022-09-24T01:18:55.308Z,67.30
2022-09-24T01:21:33.318Z,71.88
2022-09-24T01:24:14.533Z,61.70
2022-09-24T01:27:01.626Z,65.85
2022-09-24T01:29:41.852Z,64.07
2022-09-24T01:32:14.623Z,67.38
2022-09-24T01:34:47.066Z,64.30
2022-09-24T01:37:18.409Z,64.43
2022-09-24T01:39:48.079Z,64.25
2022-09-24T01:42:17.423Z,69.43
2022-09-24T01:44:49.090Z,73.07
2022-09-24T01:47:21.168Z,76.38
2022-09-24T01:49:53.471Z,69.97
2022-09-24T01:52:26.920Z,77.05
2022-09-24T01:54:57.965Z,75.03
2022-09-24T01:57:30.075Z,75.43
2022-09-24T02:00:05.079Z,73.45
2022-09-24T02:02:46.310Z,71.18
2022-09-24T02:05:21.100Z,73.10
2022-09-24T02:07:58.460Z,85.75
2022-09-24T02:10:28.600Z,83.63
2022-09-24T02:13:03.069Z,81.10
2022-09-24T02:15:34.973Z,66.45
2022-09-24T02:18:07.992Z,78.60
2022-09-24T02:20:37.853Z,83.13
2022-09-24T02:23:07.088Z,66.53
2022-09-24T02:25:40.709Z,76.15
2022-09-24T02:30:44.065Z,70.78
2022-09-24T02:33:29.052Z,81.60
2022-09-24T02:35:57.450Z,63.72
2022-09-24T02:38:25.384Z,74.75
2022-09-24T02:40:54.654Z,71.22
2022-09-24T02:43:22.571Z,66.57
2022-09-24T02:45:51.753Z,72.63
2022-09-24T02:48:19.678Z,61.65
2022-09-24T02:50:47.702Z,62.53
2022-09-24T02:53:15.552Z,64.18
2022-09-24T02:55:43.510Z,58.45
2022-09-24T02:58:11.360Z,61.25
2022-09-24T03:00:39.392Z,63.00
2022-09-24T03:03:08.715Z,61.05
2022-09-24T03:05:36.702Z,55.38
2022-09-24T03:08:04.588Z,44.28
2022-09-24T03:10:32.394Z,41.92
2022-09-24T03:13:00.409Z,39.65
2022-09-24T03:15:29.745Z,47.60
2022-09-24T03:17:57.645Z,46.67
2022-09-24T03:20:26.819Z,53.60
2022-09-24T03:22:54.645Z,43.33
2022-09-24T03:25:22.736Z,38.30
2022-09-24T03:27:50.577Z,38.05
2022-09-24T03:30:36.605Z,33.85
2022-09-24T03:33:04.538Z,38.22
2022-09-24T03:35:34.012Z,40.25
2022-09-24T03:38:02.094Z,38.28
2022-09-24T03:40:30.147Z,34.53
2022-09-24T03:42:58.088Z,39.10
2022-09-24T03:45:25.924Z,38.08
2022-09-24T03:47:53.751Z,42.17
2022-09-24T03:50:21.741Z,35.97
2022-09-24T03:52:50.976Z,37.45
2022-09-24T03:55:19.068Z,38.60
2022-09-24T03:57:46.986Z,33.97
2022-09-24T04:00:15.677Z,33.13
2022-09-24T04:02:43.726Z,38.33
2022-09-24T04:05:11.777Z,28.75
2022-09-24T04:07:39.836Z,34.15
2022-09-24T04:10:10.220Z,31.50
2022-09-24T04:12:38.115Z,36.50
2022-09-24T04:15:06.815Z,29.85
2022-09-24T04:17:34.679Z,26.02
2022-09-24T04:20:02.939Z,27.98
2022-09-24T04:22:31.469Z,24.25
2022-09-24T04:24:59.286Z,26.20
2022-09-24T04:27:28.545Z,23.05
2022-09-24T04:29:56.637Z,19.42
2022-09-24T04:32:24.499Z,15.80
2022-09-24T04:34:52.365Z,16.15
2022-09-24T04:37:20.181Z,18.52
2022-09-24T04:39:48.011Z,15.82
2022-09-24T04:42:19.173Z,19.83
2022-09-24T04:44:51.717Z,21.17
2022-09-24T04:47:25.934Z,13.50
2022-09-24T04:49:53.945Z,10.88
2022-09-24T04:52:29.750Z,15.25
2022-09-24T04:54:58.080Z,14.38
2022-09-24T04:57:25.917Z,12.70
2022-09-24T04:59:55.307Z,14.07
2022-09-24T05:02:24.216Z,18.77
2022-09-24T05:04:52.210Z,17.67
2022-09-24T05:07:20.214Z,10.68
2022-09-24T05:09:48.133Z,13.60
2022-09-24T05:12:16.151Z,15.63
2022-09-24T05:14:44.101Z,18.67
2022-09-24T05:17:13.402Z,18.20
2022-09-24T05:19:41.366Z,16.05
2022-09-24T05:22:09.332Z,14.30
2022-09-24T05:24:37.170Z,9.27
2022-09-24T05:27:11.094Z,13.77
2022-09-24T05:29:40.019Z,23.88
2022-09-24T05:32:09.082Z,12.55
2022-09-24T05:34:38.548Z,12.35
2022-09-24T05:37:06.955Z,11.93
2022-09-24T05:39:34.906Z,16.52
2022-09-24T05:42:04.285Z,11.93
2022-09-24T05:44:32.661Z,11.50
2022-09-24T05:47:01.072Z,11.93
2022-09-24T05:49:29.055Z,13.65
2022-09-24T05:51:58.225Z,10.68
2022-09-24T05:54:26.288Z,11.70
2022-09-24T05:56:54.353Z,16.02
2022-09-24T05:59:22.258Z,13.48
2022-09-24T06:01:50.241Z,18.33
2022-09-24T06:04:18.165Z,8.35
2022-09-24T06:06:46.099Z,21.80
2022-09-24T06:09:15.393Z,9.88
2022-09-24T06:11:43.924Z,14.15
2022-09-24T06:14:13.121Z,19.67
2022-09-24T06:16:41.090Z,15.07
2022-09-24T06:19:09.321Z,17.02
2022-09-24T06:21:37.177Z,11.80
2022-09-24T06:24:05.394Z,15.77
2022-09-24T06:26:34.866Z,30.63
2022-09-24T06:29:05.265Z,22.92
2022-09-24T06:31:34.674Z,18.75
2022-09-24T06:34:03.692Z,16.80
2022-09-24T06:36:33.879Z,20.80
2022-09-24T06:39:02.143Z,10.73
2022-09-24T06:41:30.205Z,17.73
2022-09-24T06:43:59.648Z,16.08
2022-09-24T06:46:27.664Z,23.98
2022-09-24T06:48:55.643Z,15.35
2022-09-24T06:51:23.518Z,10.18
2022-09-24T06:53:52.416Z,17.50
2022-09-24T06:56:20.403Z,18.40
2022-09-24T06:58:48.258Z,15.95
2022-09-24T07:01:17.571Z,17.45
2022-09-24T07:03:45.483Z,18.35
2022-09-24T07:06:13.301Z,15.88
2022-09-24T07:08:41.253Z,19.83
2022-09-24T07:11:09.177Z,19.50
2022-09-24T07:13:37.253Z,13.80
2022-09-24T07:16:05.190Z,17.90
2022-09-24T07:18:34.509Z,15.70
2022-09-24T07:21:02.383Z,16.38
2022-09-24T07:23:30.784Z,11.98
2022-09-24T07:25:59.052Z,14.75
2022-09-24T07:28:27.245Z,12.13
2022-09-24T07:30:59.807Z,19.95
2022-09-24T07:33:28.401Z,18.40
2022-09-24T07:35:57.683Z,7.50
2022-09-24T07:38:25.559Z,13.68
2022-09-24T07:40:54.221Z,16.05
2022-09-24T07:43:22.678Z,9.13
2022-09-24T07:45:50.505Z,11.60
2022-09-24T07:48:19.165Z,11.02
2022-09-24T07:50:47.143Z,8.90
2022-09-24T07:53:16.891Z,10.18
2022-09-24T07:55:45.460Z,5.75
2022-09-24T07:58:14.967Z,11.02
2022-09-24T08:00:43.461Z,12.43
2022-09-24T08:03:11.984Z,14.48
2022-09-24T08:05:45.141Z,14.10
2022-09-24T08:08:13.117Z,16.50
2022-09-24T08:10:43.025Z,16.98
2022-09-24T08:13:11.132Z,13.25
2022-09-24T08:15:39.301Z,15.70
2022-09-24T08:18:07.708Z,16.80
2022-09-24T08:20:38.069Z,17.17
2022-09-24T08:23:09.984Z,19.90
2022-09-24T08:25:39.352Z,13.32
2022-09-24T08:28:11.313Z,13.30
2022-09-24T08:30:40.809Z,13.90
2022-09-24T08:33:08.968Z,15.65
2022-09-24T08:35:38.373Z,21.38
2022-09-24T08:38:07.228Z,21.48
2022-09-24T08:40:40.416Z,15.90
2022-09-24T08:43:36.277Z,18.25
2022-09-24T08:46:32.341Z,16.95
2022-09-24T08:49:03.422Z,16.73
2022-09-24T08:51:39.275Z,23.35
2022-09-24T08:54:10.642Z,18.67
2022-09-24T08:56:43.959Z,13.80
2022-09-24T08:59:25.523Z,20.48
2022-09-24T09:02:01.529Z,8.73
2022-09-24T09:04:40.518Z,11.07
2022-09-24T09:07:17.774Z,13.25
2022-09-24T09:09:51.068Z,12.60
2022-09-24T09:12:24.086Z,10.25
2022-09-24T09:14:59.814Z,8.68
2022-09-24T09:17:37.498Z,6.45
2022-09-24T09:20:08.905Z,20.00
2022-09-24T09:22:41.213Z,13.98
2022-09-24T09:25:19.753Z,10.07
2022-09-24T09:27:51.237Z,7.53
2022-09-24T09:30:21.997Z,11.10
2022-09-24T09:33:13.313Z,7.00
2022-09-24T09:35:51.099Z,10.85
2022-09-24T09:38:26.135Z,6.47
2022-09-24T09:41:01.861Z,7.05
2022-09-24T09:43:31.004Z,6.53
2022-09-24T09:46:11.942Z,5.25
2022-09-24T09:48:47.357Z,5.18
2022-09-24T09:51:22.527Z,4.65
2022-09-24T09:53:58.243Z,6.72
2022-09-24T09:56:28.690Z,6.72
2022-09-24T09:59:06.917Z,3.97
2022-09-24T10:01:40.617Z,8.18
2022-09-24T10:06:52.736Z,5.00
2022-09-24T10:09:20.801Z,3.97
2022-09-24T10:11:49.391Z,8.05
2022-09-24T10:14:20.652Z,5.35
2022-09-24T10:16:55.815Z,6.10
2022-09-24T10:19:25.840Z,4.65
2022-09-24T10:21:57.446Z,7.57
2022-09-24T10:24:27.418Z,14.02
2022-09-24T10:26:55.676Z,12.48
2022-09-24T10:29:44.249Z,8.07
2022-09-24T10:32:18.264Z,6.35
2022-09-24T10:34:56.496Z,8.80
2022-09-24T10:37:24.821Z,9.80
2022-09-24T10:40:00.040Z,11.18
2022-09-24T10:42:29.586Z,11.35
2022-09-24T10:45:01.984Z,18.98
2022-09-24T10:47:40.943Z,15.13
2022-09-24T10:50:22.158Z,10.60
2022-09-24T10:52:54.362Z,9.43
2022-09-24T10:55:39.190Z,11.43
2022-09-24T10:58:25.118Z,10.27
2022-09-24T11:01:04.937Z,9.18
2022-09-24T11:04:09.738Z,11.80
2022-09-24T11:06:50.387Z,11.45
2022-09-24T11:09:29.768Z,9.45
2022-09-24T11:12:09.293Z,12.18
2022-09-24T11:14:59.958Z,11.20
2022-09-24T11:17:37.949Z,13.23
2022-09-24T11:20:32.348Z,9.38
2022-09-24T11:23:22.591Z,7.30
2022-09-24T11:26:00.276Z,9.80
2022-09-24T11:28:44.983Z,7.90
2022-09-24T11:31:20.894Z,8.98
2022-09-24T11:34:09.444Z,10.40
2022-09-24T11:37:01.353Z,9.63
2022-09-24T11:39:44.266Z,14.15
2022-09-24T11:42:23.529Z,9.23
2022-09-24T11:45:14.845Z,8.32
2022-09-24T11:47:59.109Z,7.63
2022-09-24T11:50:42.510Z,12.40
2022-09-24T11:53:25.181Z,6.53
2022-09-24T11:55:59.155Z,8.63
2022-09-24T11:58:32.810Z,6.63
2022-09-24T12:01:10.319Z,11.00
2022-09-24T12:03:44.907Z,7.30
2022-09-24T12:06:19.021Z,7.47
2022-09-24T12:08:54.874Z,12.18
2022-09-24T12:11:30.834Z,14.80
2022-09-24T12:14:04.436Z,6.20
2022-09-24T12:16:38.266Z,9.27
2022-09-24T12:19:13.484Z,8.25
2022-09-24T12:21:43.974Z,4.72
2022-09-24T12:24:18.664Z,11.88
2022-09-24T12:26:48.124Z,9.45
2022-09-24T12:30:02.958Z,8.20
2022-09-24T12:32:57.804Z,4.65
2022-09-24T12:35:37.811Z,4.28
2022-09-24T12:38:09.774Z,9.90
2022-09-24T12:41:14.295Z,4.57
2022-09-24T12:46:18.706Z,8.65
2022-09-24T12:48:49.461Z,5.32
2022-09-24T12:51:22.235Z,7.55
2022-09-24T12:53:59.570Z,8.15
2022-09-24T12:56:31.050Z,10.45
2022-09-24T12:58:59.301Z,5.68
2022-09-24T13:01:31.060Z,5.53
2022-09-24T13:04:27.390Z,6.43
2022-09-24T13:06:55.729Z,5.57
2022-09-24T13:09:34.569Z,6.05
2022-09-24T13:12:21.247Z,8.57
2022-09-24T13:14:56.768Z,4.00
2022-09-24T13:17:25.314Z,1.30
2022-09-24T13:19:59.520Z,2.15
2022-09-24T13:22:30.085Z,5.93
2022-09-24T13:25:22.665Z,6.60
2022-09-24T13:28:01.063Z,4.18
2022-09-24T13:30:36.586Z,6.80
2022-09-24T13:33:16.219Z,9.90
2022-09-24T13:35:48.795Z,5.03
2022-09-24T13:38:22.805Z,9.18
2022-09-24T13:40:57.834Z,6.65
2022-09-24T13:43:38.141Z,10.02
2022-09-24T13:46:12.052Z,10.85
2022-09-24T13:48:45.163Z,6.78
2022-09-24T13:51:15.026Z,7.43
2022-09-24T13:53:48.409Z,14.13
2022-09-24T13:56:18.940Z,10.68
2022-09-24T13:58:51.281Z,12.57
2022-09-24T14:01:22.155Z,14.15
2022-09-24T14:03:55.450Z,10.93
2022-09-24T14:06:34.716Z,11.63
2022-09-24T14:09:02.682Z,10.05
2022-09-24T14:11:30.674Z,13.45
2022-09-24T14:14:16.547Z,12.43
2022-09-24T14:16:44.355Z,12.32
2022-09-24T14:19:15.955Z,7.40
2022-09-24T14:21:49.193Z,10.65
2022-09-24T14:24:22.378Z,6.90
2022-09-24T14:26:54.484Z,10.20
2022-09-24T14:29:28.015Z,13.77
2022-09-24T14:31:59.259Z,14.60
2022-09-24T14:34:31.732Z,7.47
2022-09-24T14:37:09.306Z,8.68
2022-09-24T14:39:42.104Z,7.70
2022-09-24T14:42:14.142Z,8.70
2022-09-24T14:44:47.496Z,9.18
2022-09-24T14:47:26.883Z,8.02
2022-09-24T14:49:55.641Z,17.90
2022-09-24T14:52:30.826Z,9.68
2022-09-24T14:55:15.141Z,10.98
2022-09-24T14:57:48.276Z,7.47
2022-09-24T15:00:25.112Z,7.80
2022-09-24T15:03:01.260Z,6.93
2022-09-24T15:05:30.673Z,8.80
2022-09-24T15:08:28.083Z,10.55
2022-09-24T15:10:57.594Z,10.27
2022-09-24T15:13:28.106Z,13.18
2022-09-24T15:16:05.951Z,16.70
2022-09-24T15:18:35.836Z,8.43
2022-09-24T15:21:08.228Z,12.73
2022-09-24T15:23:36.100Z,9.85
2022-09-24T15:26:04.335Z,15.02
2022-09-24T15:28:32.530Z,11.80
2022-09-24T15:31:00.544Z,9.23
2022-09-24T15:33:29.756Z,10.20
2022-09-24T15:35:57.674Z,13.13
2022-09-24T15:38:25.533Z,13.82
2022-09-24T15:40:53.866Z,11.48
2022-09-24T15:43:23.984Z,13.40
2022-09-24T15:45:52.657Z,7.05
2022-09-24T15:48:20.547Z,6.35
2022-09-24T15:50:51.645Z,11.57
2022-09-24T15:53:23.754Z,8.95
2022-09-24T15:55:55.230Z,9.77
2022-09-24T15:58:23.926Z,7.95
2022-09-24T16:00:52.075Z,7.68
2022-09-24T16:03:23.169Z,11.68
2022-09-24T16:05:52.649Z,9.60
2022-09-24T16:08:20.911Z,14.82
2022-09-24T16:10:49.544Z,10.07
2022-09-24T16:13:17.994Z,10.77
2022-09-24T16:15:45.990Z,12.98
2022-09-24T16:18:16.026Z,10.57
2022-09-24T16:20:45.372Z,4.97
2022-09-24T16:23:15.460Z,11.70
2022-09-24T16:25:43.935Z,10.23
2022-09-24T16:28:11.835Z,8.30
2022-09-24T16:30:39.711Z,14.57
2022-09-24T16:33:07.893Z,11.98
2022-09-24T16:35:35.857Z,9.68
2022-09-24T16:38:03.815Z,8.00
2022-09-24T16:40:33.220Z,11.77
2022-09-24T16:43:01.355Z,13.43
2022-09-24T16:45:29.176Z,10.35
2022-09-24T16:47:57.014Z,8.68
2022-09-24T16:50:24.835Z,7.53
2022-09-24T16:52:55.303Z,9.30
2022-09-24T16:55:24.765Z,12.10
2022-09-24T16:57:54.380Z,7.00
2022-09-24T17:00:22.251Z,11.43
2022-09-24T17:02:50.211Z,15.57
2022-09-24T17:05:18.362Z,9.40
2022-09-24T17:07:46.319Z,12.82
2022-09-24T17:10:13.216Z,11.95
2022-09-24T17:12:41.996Z,10.00
2022-09-24T17:15:13.501Z,10.98
2022-09-24T17:17:49.178Z,14.15
2022-09-24T17:20:18.926Z,8.68
2022-09-24T17:22:48.073Z,9.68
2022-09-24T17:25:16.475Z,6.55
2022-09-24T17:27:44.972Z,10.35
2022-09-24T17:30:15.225Z,4.80
2022-09-24T17:32:43.114Z,13.00
2022-09-24T17:35:11.137Z,5.18
2022-09-24T17:37:39.222Z,9.55
2022-09-24T17:40:08.453Z,12.48
2022-09-24T17:42:36.466Z,16.13
2022-09-24T17:45:04.935Z,15.00
2022-09-24T17:47:54.630Z,6.90
2022-09-24T17:50:22.767Z,7.55
2022-09-24T17:52:50.669Z,7.70
2022-09-24T17:55:18.526Z,6.53
2022-09-24T17:57:46.375Z,10.32
2022-09-24T18:00:15.116Z,12.85
2022-09-24T18:02:44.449Z,4.47
2022-09-24T18:05:12.499Z,14.25
2022-09-24T18:07:41.495Z,9.82
2022-09-24T18:10:10.168Z,18.17
2022-09-24T18:12:38.131Z,5.85
2022-09-24T18:15:06.709Z,11.18
2022-09-24T18:17:34.546Z,9.30
2022-09-24T18:20:04.191Z,13.30
2022-09-24T18:22:32.062Z,5.75
2022-09-24T18:25:01.718Z,8.85
2022-09-24T18:27:31.729Z,10.48
2022-09-24T18:30:02.244Z,7.25
2022-09-24T18:32:31.833Z,10.20
2022-09-24T18:34:59.944Z,13.02
2022-09-24T18:37:29.446Z,7.72
2022-09-24T18:39:57.379Z,12.48
2022-09-24T18:42:26.860Z,7.20
2022-09-24T18:44:54.719Z,11.85
2022-09-24T18:47:22.646Z,9.50
2022-09-24T18:49:50.605Z,4.10
2022-09-24T18:52:18.457Z,10.43
2022-09-24T18:54:47.770Z,8.13
2022-09-24T18:57:15.768Z,8.15
2022-09-24T18:59:45.436Z,9.10
2022-09-24T19:02:14.296Z,13.48
2022-09-24T19:04:42.894Z,6.88
2022-09-24T19:07:10.854Z,7.63
2022-09-24T19:09:38.784Z,15.13
2022-09-24T19:12:08.827Z,10.85
2022-09-24T19:14:36.770Z,6.40
2022-09-24T19:17:07.139Z,14.02
2022-09-24T19:19:35.094Z,6.65
2022-09-24T19:22:03.029Z,14.02
2022-09-24T19:24:30.810Z,12.23
2022-09-24T19:26:58.715Z,7.70
2022-09-24T19:29:28.369Z,10.20
2022-09-24T19:31:56.408Z,9.88
2022-09-24T19:34:24.244Z,5.25
2022-09-24T19:36:52.135Z,12.05
2022-09-24T19:39:19.999Z,9.00
2022-09-24T19:41:48.952Z,9.85
2022-09-24T19:44:17.315Z,10.95
2022-09-24T19:46:46.938Z,15.93
2022-09-24T19:49:14.904Z,11.05
2022-09-24T19:51:42.785Z,9.55
2022-09-24T19:54:11.454Z,9.05
2022-09-24T19:56:40.072Z,12.20
2022-09-24T19:59:08.736Z,13.10
2022-09-24T20:01:37.647Z,5.68
2022-09-24T20:04:08.263Z,9.80
2022-09-24T20:06:38.127Z,12.18
2022-09-24T20:09:06.910Z,15.18
2022-09-24T20:11:35.050Z,8.98
2022-09-24T20:14:03.236Z,12.68
2022-09-24T20:16:32.500Z,8.45
2022-09-24T20:19:02.585Z,15.02
2022-09-24T20:21:35.251Z,7.15
2022-09-24T20:24:04.655Z,9.47
2022-09-24T20:26:51.071Z,10.32
2022-09-24T20:29:20.234Z,11.52
2022-09-24T20:31:52.296Z,15.27
2022-09-24T20:34:21.973Z,11.93
2022-09-24T20:36:51.677Z,12.07
2022-09-24T20:39:19.836Z,7.13
2022-09-24T20:41:49.348Z,5.00
2022-09-24T20:44:17.593Z,8.25
2022-09-24T20:46:46.065Z,11.38
2022-09-24T20:49:19.478Z,10.77
2022-09-24T20:51:50.541Z,9.55
2022-09-24T20:54:22.427Z,10.35
2022-09-24T20:56:50.800Z,11.07
2022-09-24T20:59:18.722Z,8.40
2022-09-24T21:01:47.979Z,12.43
2022-09-24T21:04:15.920Z,10.85
2022-09-24T21:06:43.985Z,9.90
2022-09-24T21:09:12.108Z,7.30
2022-09-24T21:11:41.857Z,8.82
2022-09-24T21:14:12.454Z,7.95
2022-09-24T21:16:40.609Z,12.25
2022-09-24T21:19:08.481Z,13.05
2022-09-24T21:21:38.824Z,13.60
2022-09-24T21:24:09.895Z,9.52
2022-09-24T21:26:39.415Z,6.93
2022-09-24T21:29:11.416Z,9.52
2022-09-24T21:31:41.976Z,8.52
2022-09-24T21:34:10.942Z,8.55
2022-09-24T21:36:44.483Z,9.75
2022-09-24T21:39:15.539Z,9.75
2022-09-24T21:41:44.373Z,10.27
2022-09-24T21:44:15.620Z,7.47
2022-09-24T21:46:43.973Z,10.48
2022-09-24T21:49:12.832Z,12.13
2022-09-24T21:51:41.366Z,12.57
2022-09-24T21:54:14.071Z,7.60
2022-09-24T21:56:42.061Z,11.02
2022-09-24T21:59:24.726Z,8.00
2022-09-24T22:01:55.160Z,9.13
2022-09-24T22:04:23.710Z,5.63
2022-09-24T22:06:52.085Z,9.98
2022-09-24T22:09:20.555Z,8.65
2022-09-24T22:11:48.778Z,11.02
2022-09-24T22:14:16.703Z,7.47
2022-09-24T22:16:44.947Z,10.52
2022-09-24T22:19:14.618Z,14.27
2022-09-24T22:21:42.671Z,16.35
2022-09-24T22:24:10.808Z,10.55
2022-09-24T22:26:38.798Z,7.50
2022-09-24T22:29:06.930Z,6.55
2022-09-24T22:31:34.917Z,8.27
2022-09-24T22:34:20.169Z,9.07
2022-09-24T22:36:49.356Z,7.32
2022-09-24T22:39:17.204Z,8.27
2022-09-24T22:41:45.025Z,5.30
2022-09-24T22:44:13.646Z,11.95
2022-09-24T22:46:41.796Z,9.77
2022-09-24T22:49:11.296Z,10.57
2022-09-24T22:51:40.097Z,13.43
2022-09-24T22:54:11.205Z,8.40
2022-09-24T22:56:39.032Z,9.55
2022-09-24T22:59:06.992Z,10.13
2022-09-24T23:01:40.027Z,12.30
2022-09-24T23:04:08.128Z,12.43
2022-09-24T23:06:36.169Z,10.57
2022-09-24T23:09:05.118Z,7.95
2022-09-24T23:11:35.992Z,10.10
2022-09-24T23:14:05.977Z,8.65
2022-09-24T23:16:35.416Z,11.57
2022-09-24T23:19:05.268Z,6.63
2022-09-24T23:21:33.910Z,8.90
2022-09-24T23:24:03.596Z,6.65
2022-09-24T23:26:31.966Z,10.23
2022-09-24T23:29:02.052Z,15.32
2022-09-24T23:31:32.943Z,6.72
2022-09-24T23:34:01.940Z,13.32
2022-09-24T23:36:32.021Z,8.40
2022-09-24T23:39:00.364Z,12.30
2022-09-24T23:41:31.457Z,12.18
2022-09-24T23:44:00.751Z,4.55
2022-09-24T23:46:28.809Z,8.52
2022-09-24T23:48:57.128Z,7.10
2022-09-24T23:51:25.410Z,8.40
2022-09-24T23:53:53.675Z,9.63
2022-09-24T23:56:21.816Z,9.05
2022-09-24T23:58:49.885Z,9.32
